TimeCDT,TemperatureF,Dew PointF,Humidity,Sea Level PressureIn,VisibilityMPH,Wind Direction,Wind SpeedMPH,Gust SpeedMPH,PrecipitationIn,Events,Conditions,WindDirDegrees,DateUTC
12:53 AM,42.1,34.0,73,30.12,10.0,SSE,5.8,-,N/A,,Clear,150,2012-10-30 05:53:00
1:53 AM,39.9,34.0,79,30.11,10.0,South,5.8,-,N/A,,Clear,170,2012-10-30 06:53:00
2:53 AM,39.9,34.0,79,30.11,10.0,South,5.8,-,N/A,,Clear,170,2012-10-30 07:53:00
3:53 AM,39.0,33.1,79,30.10,10.0,SSE,5.8,-,N/A,,Clear,160,2012-10-30 08:53:00
4:53 AM,36.0,33.1,89,30.10,10.0,South,3.5,-,N/A,,Clear,170,2012-10-30 09:53:00
5:53 AM,36.0,33.1,89,30.10,10.0,South,4.6,-,N/A,,Clear,170,2012-10-30 10:53:00
6:53 AM,36.0,33.1,89,30.10,10.0,Calm,Calm,-,N/A,,Clear,0,2012-10-30 11:53:00
7:53 AM,36.0,33.1,89,30.09,10.0,South,6.9,-,N/A,,Clear,170,2012-10-30 12:53:00
8:53 AM,41.0,37.0,86,30.09,10.0,SSE,4.6,-,N/A,,Clear,160,2012-10-30 13:53:00
9:53 AM,48.0,37.9,68,30.07,10.0,South,4.6,-,N/A,,Scattered Clouds,170,2012-10-30 14:53:00
10:53 AM,59.0,39.9,49,30.06,10.0,Variable,4.6,-,N/A,,Clear,0,2012-10-30 15:53:00
11:53 AM,64.9,36.0,34,30.04,10.0,SW,4.6,-,N/A,,Clear,220,2012-10-30 16:53:00
12:53 PM,68.0,37.0,32,30.01,10.0,WSW,9.2,-,N/A,,Clear,250,2012-10-30 17:53:00
1:53 PM,69.1,37.0,31,29.97,10.0,SSW,4.6,-,N/A,,Clear,200,2012-10-30 18:53:00
2:53 PM,70.0,37.9,31,29.94,10.0,South,9.2,-,N/A,,Scattered Clouds,190,2012-10-30 19:53:00
3:53 PM,73.0,37.0,27,29.91,10.0,SSW,11.5,-,N/A,,Clear,200,2012-10-30 20:53:00
4:53 PM,72.0,37.0,28,29.91,10.0,South,6.9,-,N/A,,Clear,190,2012-10-30 21:53:00
5:53 PM,69.1,39.0,33,29.91,10.0,SSE,5.8,-,N/A,,Clear,150,2012-10-30 22:53:00
6:53 PM,63.0,39.9,43,29.91,10.0,SSE,4.6,-,N/A,,Clear,160,2012-10-30 23:53:00
7:53 PM,57.9,39.9,51,29.92,10.0,SE,5.8,-,N/A,,Clear,140,2012-10-31 00:53:00
8:53 PM,55.9,39.9,55,29.92,10.0,SSE,6.9,-,N/A,,Clear,150,2012-10-31 01:53:00
9:53 PM,55.0,41.0,59,29.92,10.0,SSE,6.9,-,N/A,,Clear,160,2012-10-31 02:53:00
10:53 PM,52.0,42.1,69,29.93,10.0,SSE,5.8,-,N/A,,Clear,160,2012-10-31 03:53:00
11:53 PM,51.1,41.0,68,29.91,10.0,SSE,6.9,-,N/A,,Clear,160,2012-10-31 04:53:00